Time,TemperatureF,DewpointF,PressureIn,WindDirection,WindDirectionDegrees,WindSpeedMPH,WindSpeedGustMPH,Humidity,HourlyPrecipIn,Conditions,Clouds,dailyrainin,SolarRadiationWatts/m^2,SoftwareType,DateUTC
2013-02-14 00:01:00,40.0,16.0,-100.00,ESE,113,3.0,4.0,37,0.00,,,0.00,0.000000,,2013-02-14 08:01:00,
2013-02-14 00:32:00,39.0,16.0,-100.00,East,100,3.0,4.0,38,0.00,,,0.00,0.000000,,2013-02-14 08:32:00,
2013-02-14 00:43:00,39.0,16.0,-100.00,East,100,3.0,4.0,38,0.00,,,0.00,0.000000,,2013-02-14 08:43:00,
2013-02-14 00:52:00,39.0,16.0,-100.00,East,100,3.0,4.0,38,0.00,,,0.00,0.000000,,2013-02-14 08:52:00,
2013-02-14 01:01:00,39.0,16.0,-100.00,East,100,3.0,4.0,38,0.00,,,0.00,0.000000,,2013-02-14 09:01:00,
2013-02-14 01:32:00,40.0,17.0,-100.00,East,80,2.0,4.0,39,0.00,,,0.00,0.000000,,2013-02-14 09:32:00,
2013-02-14 01:42:00,40.0,17.0,-100.00,East,80,2.0,4.0,39,0.00,,,0.00,0.000000,,2013-02-14 09:42:00,
2013-02-14 01:52:00,40.0,17.0,-100.00,East,80,2.0,4.0,39,0.00,,,0.00,0.000000,,2013-02-14 09:52:00,
2013-02-14 02:01:00,40.0,17.0,-100.00,East,80,2.0,4.0,39,0.00,,,0.00,0.000000,,2013-02-14 10:01:00,
2013-02-14 02:21:00,39.0,18.0,-100.00,East,93,2.0,3.0,43,0.00,,,0.00,0.000000,,2013-02-14 10:21:00,
2013-02-14 02:32:00,39.0,18.0,-100.00,East,93,2.0,3.0,43,0.00,,,0.00,0.000000,,2013-02-14 10:32:00,
2013-02-14 02:42:00,39.0,18.0,-100.00,East,93,2.0,3.0,43,0.00,,,0.00,0.000000,,2013-02-14 10:42:00,
2013-02-14 02:52:00,39.0,18.0,-100.00,East,93,2.0,3.0,43,0.00,,,0.00,0.000000,,2013-02-14 10:52:00,
2013-02-14 03:01:00,39.0,18.0,-100.00,East,93,2.0,3.0,43,0.00,,,0.00,0.000000,,2013-02-14 11:01:00,
2013-02-14 03:32:00,39.0,18.0,-100.00,ENE,74,2.0,5.0,43,0.00,,,0.00,0.000000,,2013-02-14 11:32:00,
2013-02-14 03:42:00,39.0,18.0,-100.00,ENE,74,2.0,5.0,43,0.00,,,0.00,0.000000,,2013-02-14 11:42:00,
2013-02-14 03:52:00,39.0,18.0,-100.00,ENE,74,2.0,5.0,43,0.00,,,0.00,0.000000,,2013-02-14 11:52:00,
2013-02-14 04:01:00,39.0,18.0,-100.00,ENE,74,2.0,5.0,43,0.00,,,0.00,0.000000,,2013-02-14 12:01:00,
2013-02-14 04:32:00,40.0,19.0,-100.00,East,84,2.0,7.0,42,0.00,,,0.00,0.000000,,2013-02-14 12:32:00,
2013-02-14 04:42:00,40.0,19.0,-100.00,East,84,2.0,7.0,42,0.00,,,0.00,0.000000,,2013-02-14 12:42:00,
2013-02-14 04:53:00,40.0,19.0,-100.00,East,84,2.0,7.0,42,0.00,,,0.00,0.000000,,2013-02-14 12:53:00,
2013-02-14 05:01:00,40.0,19.0,-100.00,East,84,2.0,7.0,42,0.00,,,0.00,0.000000,,2013-02-14 13:01:00,
2013-02-14 05:32:00,40.0,19.0,-100.00,NNE,12,3.0,5.0,42,0.00,,,0.00,0.000000,,2013-02-14 13:32:00,
2013-02-14 05:42:00,40.0,19.0,-100.00,NNE,12,3.0,5.0,42,0.00,,,0.00,0.000000,,2013-02-14 13:42:00,
2013-02-14 05:51:00,40.0,19.0,-100.00,NNE,12,3.0,5.0,42,0.00,,,0.00,0.000000,,2013-02-14 13:51:00,
2013-02-14 06:01:00,40.0,19.0,-100.00,NNE,12,3.0,5.0,42,0.00,,,0.00,0.000000,,2013-02-14 14:01:00,
2013-02-14 06:21:00,38.0,18.0,-100.00,East,98,3.0,5.0,44,0.00,,,0.00,0.000000,,2013-02-14 14:21:00,
2013-02-14 06:32:00,38.0,18.0,-100.00,East,98,3.0,5.0,44,0.00,,,0.00,0.000000,,2013-02-14 14:32:00,
2013-02-14 06:42:00,38.0,18.0,-100.00,East,98,3.0,5.0,44,0.00,,,0.00,0.000000,,2013-02-14 14:42:00,
2013-02-14 06:52:00,38.0,18.0,-100.00,East,98,3.0,5.0,44,0.00,,,0.00,0.000000,,2013-02-14 14:52:00,
2013-02-14 07:01:00,38.0,18.0,-100.00,East,98,3.0,5.0,44,0.00,,,0.00,0.000000,,2013-02-14 15:01:00,
2013-02-14 07:32:00,38.0,16.0,-100.00,NE,38,3.0,5.0,41,0.00,,,0.00,6.000000,,2013-02-14 15:32:00,
2013-02-14 07:42:00,38.0,16.0,-100.00,NE,38,3.0,5.0,41,0.00,,,0.00,6.000000,,2013-02-14 15:42:00,
2013-02-14 07:52:00,38.0,16.0,-100.00,NE,38,3.0,5.0,41,0.00,,,0.00,6.000000,,2013-02-14 15:52:00,
2013-02-14 08:01:00,38.0,16.0,-100.00,NE,38,3.0,5.0,41,0.00,,,0.00,6.000000,,2013-02-14 16:01:00,
2013-02-14 08:22:00,45.0,15.0,-100.00,North,2,6.0,9.0,30,0.00,,,0.00,87.000000,,2013-02-14 16:22:00,
2013-02-14 08:32:00,45.0,15.0,-100.00,North,2,6.0,9.0,30,0.00,,,0.00,87.000000,,2013-02-14 16:32:00,
2013-02-14 08:42:00,45.0,15.0,-100.00,North,2,6.0,9.0,30,0.00,,,0.00,87.000000,,2013-02-14 16:42:00,
2013-02-14 08:52:00,45.0,15.0,-100.00,North,2,6.0,9.0,30,0.00,,,0.00,87.000000,,2013-02-14 16:52:00,
2013-02-14 09:01:00,45.0,15.0,-100.00,North,2,6.0,9.0,30,0.00,,,0.00,87.000000,,2013-02-14 17:01:00,
2013-02-14 09:32:00,51.0,21.0,-100.00,North,352,8.0,12.0,31,0.00,,,0.00,390.000000,,2013-02-14 17:32:00,
2013-02-14 09:42:00,51.0,21.0,-100.00,North,352,8.0,12.0,31,0.00,,,0.00,390.000000,,2013-02-14 17:42:00,
2013-02-14 09:52:00,51.0,21.0,-100.00,North,352,8.0,12.0,31,0.00,,,0.00,390.000000,,2013-02-14 17:52:00,
2013-02-14 10:01:00,51.0,21.0,-100.00,North,352,8.0,12.0,31,0.00,,,0.00,390.000000,,2013-02-14 18:01:00,
2013-02-14 10:32:00,52.0,23.0,-100.00,NNW,342,8.0,15.0,32,0.00,,,0.00,607.000000,,2013-02-14 18:32:00,
2013-02-14 10:42:00,52.0,23.0,-100.00,NNW,342,8.0,15.0,32,0.00,,,0.00,607.000000,,2013-02-14 18:42:00,
2013-02-14 10:52:00,52.0,23.0,-100.00,NNW,342,8.0,15.0,32,0.00,,,0.00,607.000000,,2013-02-14 18:52:00,
2013-02-14 11:01:00,52.0,23.0,-100.00,NNW,342,8.0,15.0,32,0.00,,,0.00,607.000000,,2013-02-14 19:01:00,
2013-02-14 11:32:00,53.0,22.0,-100.00,NNW,348,10.0,17.0,30,0.00,,,0.00,772.000000,,2013-02-14 19:32:00,
2013-02-14 11:42:00,53.0,22.0,-100.00,NNW,348,10.0,17.0,30,0.00,,,0.00,772.000000,,2013-02-14 19:42:00,
2013-02-14 11:52:00,53.0,22.0,-100.00,NNW,348,10.0,17.0,30,0.00,,,0.00,772.000000,,2013-02-14 19:52:00,
2013-02-14 12:01:00,53.0,22.0,-100.00,NNW,348,10.0,17.0,30,0.00,,,0.00,772.000000,,2013-02-14 20:01:00,
2013-02-14 12:22:00,55.0,23.0,-100.00,North,357,9.0,17.0,28,0.00,,,0.00,869.000000,,2013-02-14 20:22:00,
2013-02-14 12:32:00,55.0,23.0,-100.00,North,357,9.0,17.0,28,0.00,,,0.00,869.000000,,2013-02-14 20:32:00,
2013-02-14 12:42:00,55.0,23.0,-100.00,North,357,9.0,17.0,28,0.00,,,0.00,869.000000,,2013-02-14 20:42:00,
2013-02-14 12:52:00,55.0,23.0,-100.00,North,357,9.0,17.0,28,0.00,,,0.00,869.000000,,2013-02-14 20:52:00,
2013-02-14 13:01:00,55.0,23.0,-100.00,North,357,9.0,17.0,28,0.00,,,0.00,869.000000,,2013-02-14 21:01:00,
2013-02-14 13:32:00,55.0,23.0,-100.00,NNW,340,10.0,18.0,28,0.00,,,0.00,891.000000,,2013-02-14 21:32:00,
2013-02-14 13:42:00,55.0,23.0,-100.00,NNW,340,10.0,18.0,28,0.00,,,0.00,891.000000,,2013-02-14 21:42:00,
2013-02-14 13:52:00,55.0,23.0,-100.00,NNW,340,10.0,18.0,28,0.00,,,0.00,891.000000,,2013-02-14 21:52:00,
2013-02-14 14:01:00,55.0,23.0,-100.00,NNW,340,10.0,18.0,28,0.00,,,0.00,891.000000,,2013-02-14 22:01:00,
2013-02-14 14:21:00,55.0,21.0,-100.00,North,350,11.0,21.0,26,0.00,,,0.00,831.000000,,2013-02-14 22:21:00,
2013-02-14 14:32:00,55.0,21.0,-100.00,North,350,11.0,21.0,26,0.00,,,0.00,831.000000,,2013-02-14 22:32:00,
2013-02-14 14:42:00,55.0,21.0,-100.00,North,350,11.0,21.0,26,0.00,,,0.00,831.000000,,2013-02-14 22:42:00,
2013-02-14 14:52:00,55.0,21.0,-100.00,North,350,11.0,21.0,26,0.00,,,0.00,831.000000,,2013-02-14 22:52:00,
2013-02-14 15:01:00,55.0,21.0,-100.00,North,350,11.0,21.0,26,0.00,,,0.00,831.000000,,2013-02-14 23:01:00,
2013-02-14 15:32:00,55.0,21.0,-100.00,North,356,11.0,18.0,26,0.00,,,0.00,700.000000,,2013-02-14 23:32:00,
2013-02-14 15:42:00,55.0,21.0,-100.00,North,356,11.0,18.0,26,0.00,,,0.00,700.000000,,2013-02-14 23:42:00,
2013-02-14 15:52:00,55.0,21.0,-100.00,North,356,11.0,18.0,26,0.00,,,0.00,700.000000,,2013-02-14 23:52:00,
2013-02-14 16:01:00,55.0,21.0,-100.00,North,356,11.0,18.0,26,0.00,,,0.00,700.000000,,2013-02-15 00:01:00,
2013-02-14 16:32:00,54.0,18.0,-100.00,North,8,10.0,20.0,24,0.00,,,0.00,508.000000,,2013-02-15 00:32:00,
2013-02-14 16:42:00,54.0,18.0,-100.00,North,8,10.0,20.0,24,0.00,,,0.00,508.000000,,2013-02-15 00:42:00,
2013-02-14 16:52:00,54.0,18.0,-100.00,North,8,10.0,20.0,24,0.00,,,0.00,508.000000,,2013-02-15 00:52:00,
2013-02-14 17:01:00,54.0,18.0,-100.00,North,8,10.0,20.0,24,0.00,,,0.00,508.000000,,2013-02-15 01:01:00,
2013-02-14 17:32:00,52.0,18.0,-100.00,North,1,9.0,17.0,26,0.00,,,0.00,264.000000,,2013-02-15 01:32:00,
2013-02-14 17:42:00,52.0,18.0,-100.00,North,1,9.0,17.0,26,0.00,,,0.00,264.000000,,2013-02-15 01:42:00,
2013-02-14 17:52:00,52.0,18.0,-100.00,North,1,9.0,17.0,26,0.00,,,0.00,264.000000,,2013-02-15 01:52:00,
2013-02-14 18:01:00,52.0,18.0,-100.00,North,1,9.0,17.0,26,0.00,,,0.00,264.000000,,2013-02-15 02:01:00,
2013-02-14 18:21:00,47.0,17.0,-100.00,North,5,6.0,12.0,30,0.00,,,0.00,26.000000,,2013-02-15 02:21:00,
2013-02-14 18:32:00,47.0,17.0,-100.00,North,5,6.0,12.0,30,0.00,,,0.00,26.000000,,2013-02-15 02:32:00,
2013-02-14 18:42:00,47.0,17.0,-100.00,North,5,6.0,12.0,30,0.00,,,0.00,26.000000,,2013-02-15 02:42:00,
2013-02-14 18:52:00,47.0,17.0,-100.00,North,5,6.0,12.0,30,0.00,,,0.00,26.000000,,2013-02-15 02:52:00,
2013-02-14 19:01:00,47.0,17.0,-100.00,North,5,6.0,12.0,30,0.00,,,0.00,26.000000,,2013-02-15 03:01:00,
2013-02-14 19:32:00,43.0,18.0,-100.00,NE,54,3.0,9.0,36,0.00,,,0.00,0.000000,,2013-02-15 03:32:00,
2013-02-14 19:42:00,43.0,18.0,-100.00,NE,54,3.0,9.0,36,0.00,,,0.00,0.000000,,2013-02-15 03:42:00,
2013-02-14 19:52:00,43.0,18.0,-100.00,NE,54,3.0,9.0,36,0.00,,,0.00,0.000000,,2013-02-15 03:52:00,
2013-02-14 20:01:00,43.0,18.0,-100.00,NE,54,3.0,9.0,36,0.00,,,0.00,0.000000,,2013-02-15 04:01:00,
2013-02-14 20:22:00,38.0,18.0,-100.00,East,79,3.0,6.0,43,0.00,,,0.00,0.000000,,2013-02-15 04:22:00,
2013-02-14 20:32:00,38.0,18.0,-100.00,East,79,3.0,6.0,43,0.00,,,0.00,0.000000,,2013-02-15 04:32:00,
2013-02-14 20:42:00,38.0,18.0,-100.00,East,79,3.0,6.0,43,0.00,,,0.00,0.000000,,2013-02-15 04:42:00,
2013-02-14 20:52:00,38.0,18.0,-100.00,East,79,3.0,6.0,43,0.00,,,0.00,0.000000,,2013-02-15 04:52:00,
2013-02-14 21:01:00,38.0,18.0,-100.00,East,79,3.0,6.0,43,0.00,,,0.00,0.000000,,2013-02-15 05:01:00,
2013-02-14 21:32:00,39.0,18.0,-100.00,ENE,75,3.0,6.0,43,0.00,,,0.00,0.000000,,2013-02-15 05:32:00,
2013-02-14 21:42:00,39.0,18.0,-100.00,ENE,75,3.0,6.0,43,0.00,,,0.00,0.000000,,2013-02-15 05:42:00,
2013-02-14 21:52:00,39.0,18.0,-100.00,ENE,75,3.0,6.0,43,0.00,,,0.00,0.000000,,2013-02-15 05:52:00,
2013-02-14 22:01:00,39.0,18.0,-100.00,ENE,75,3.0,6.0,43,0.00,,,0.00,0.000000,,2013-02-15 06:01:00,
2013-02-14 22:32:00,44.0,19.0,-100.00,NNE,14,7.0,9.0,37,0.00,,,0.00,0.000000,,2013-02-15 06:32:00,
2013-02-14 22:42:00,44.0,19.0,-100.00,NNE,14,7.0,9.0,37,0.00,,,0.00,0.000000,,2013-02-15 06:42:00,
2013-02-14 22:52:00,44.0,19.0,-100.00,NNE,14,7.0,9.0,37,0.00,,,0.00,0.000000,,2013-02-15 06:52:00,
2013-02-14 23:01:00,44.0,19.0,-100.00,NNE,14,7.0,9.0,37,0.00,,,0.00,0.000000,,2013-02-15 07:01:00,
2013-02-14 23:21:00,42.0,20.0,-100.00,NE,49,4.0,12.0,41,0.00,,,0.00,0.000000,,2013-02-15 07:21:00,
2013-02-14 23:32:00,42.0,20.0,-100.00,NE,49,4.0,12.0,41,0.00,,,0.00,0.000000,,2013-02-15 07:32:00,
2013-02-14 23:42:00,42.0,20.0,-100.00,NE,49,4.0,12.0,41,0.00,,,0.00,0.000000,,2013-02-15 07:42:00,
2013-02-14 23:52:00,42.0,20.0,-100.00,NE,49,4.0,12.0,41,0.00,,,0.00,0.000000,,2013-02-15 07:52:00,